Time;durP1;ratioP1;P1;durP2;ratioP2;P2;SDS_P1;SDS_P2;PMS_P1;PMS_P2;Temp;Humidity;BMP_temperature;BMP_pressure;BME280_temperature;BME280_humidity;BME280_pressure;Samples;Min_cycle;Max_cycle;Signal;HPM_P1;HPM_P2
2023/02/02 00:00:27;;;;;;;13.30;2.70;;;8.80;99.90;;;;;;5037618;28;20240;-61
2023/02/02 00:02:53;;;;;;;10.27;2.43;;;8.80;99.90;;;;;;5037524;28;20213;-59
2023/02/02 00:05:20;;;;;;;8.37;2.47;;;8.80;99.90;;;;;;5030031;28;20229;-62
2023/02/02 00:07:48;;;;;;;12.27;2.63;;;8.80;99.90;;;;;;5033643;28;20554;-60
2023/02/02 00:10:15;;;;;;;15.37;2.47;;;8.80;99.90;;;;;;5037471;28;20208;-60
2023/02/02 00:12:41;;;;;;;9.73;2.30;;;8.70;99.90;;;;;;5020829;28;20211;-63
2023/02/02 00:15:09;;;;;;;14.30;2.80;;;8.70;99.90;;;;;;5033411;28;20561;-63
2023/02/02 00:17:36;;;;;;;14.47;2.47;;;8.70;99.90;;;;;;5035539;28;20664;-63
2023/02/02 00:20:03;;;;;;;11.47;2.30;;;8.70;99.90;;;;;;5036785;28;20222;-62
2023/02/02 00:22:30;;;;;;;12.70;2.27;;;8.70;99.90;;;;;;5032308;28;20215;-62
2023/02/02 00:24:57;;;;;;;15.83;2.40;;;8.70;99.90;;;;;;5036134;28;20208;-62
2023/02/02 00:27:23;;;;;;;13.53;2.77;;;8.70;99.90;;;;;;5032272;28;20319;-64
2023/02/02 00:29:52;;;;;;;13.87;3.10;;;8.80;99.90;;;;;;5036082;28;20210;-62
2023/02/02 00:32:19;;;;;;;11.03;2.97;;;8.70;99.90;;;;;;5042018;28;20292;-63
2023/02/02 00:34:46;;;;;;;11.30;1.87;;;8.70;99.90;;;;;;5040939;28;20299;-64
2023/02/02 00:37:13;;;;;;;11.77;2.27;;;8.80;99.90;;;;;;5036523;28;20556;-63
2023/02/02 00:39:39;;;;;;;12.00;2.63;;;8.70;99.90;;;;;;5038785;28;20307;-62
2023/02/02 00:42:10;;;;;;;12.37;2.90;;;8.80;99.90;;;;;;5039211;28;20207;-62
2023/02/02 00:47:22;;;;;;;8.03;2.43;;;8.80;99.90;;;;;;5035747;28;20220;-64
2023/02/02 00:49:48;;;;;;;9.70;2.60;;;8.80;99.90;;;;;;5035889;28;20607;-62
2023/02/02 00:52:15;;;;;;;10.60;2.87;;;8.80;99.90;;;;;;5035633;28;20622;-62
2023/02/02 00:54:42;;;;;;;9.27;1.93;;;8.70;99.90;;;;;;5038856;28;20655;-62
2023/02/02 00:57:13;;;;;;;11.40;2.50;;;8.70;99.90;;;;;;5039893;28;20214;-62
2023/02/02 00:59:40;;;;;;;10.10;2.47;;;8.70;99.90;;;;;;5038411;28;20698;-62
2023/02/02 01:02:09;;;;;;;14.33;2.30;;;8.70;99.90;;;;;;5034065;28;20624;-59
2023/02/02 01:04:36;;;;;;;14.20;2.73;;;8.70;99.90;;;;;;5035291;28;20285;-59
2023/02/02 01:07:04;;;;;;;14.33;2.27;;;8.70;99.90;;;;;;5036891;28;20298;-62
2023/02/02 01:09:31;;;;;;;15.13;2.40;;;8.70;99.90;;;;;;5036362;28;20219;-60
2023/02/02 01:11:58;;;;;;;12.33;2.00;;;8.70;99.90;;;;;;5038407;28;20203;-59
2023/02/02 01:14:25;;;;;;;13.03;2.20;;;8.70;99.90;;;;;;5040779;28;20285;-59
2023/02/02 01:16:51;;;;;;;9.13;2.27;;;8.70;99.90;;;;;;5041458;28;20662;-60
2023/02/02 01:19:18;;;;;;;12.53;1.93;;;8.70;99.90;;;;;;5037221;28;20742;-59
2023/02/02 01:21:45;;;;;;;19.30;2.93;;;8.70;99.90;;;;;;5041452;28;20229;-62
2023/02/02 01:24:12;;;;;;;17.60;2.60;;;8.70;99.90;;;;;;5038065;28;20218;-61
2023/02/02 01:26:39;;;;;;;11.43;2.57;;;8.70;99.90;;;;;;5054596;28;20673;-60
2023/02/02 01:29:06;;;;;;;7.70;2.60;;;8.70;99.90;;;;;;5039575;28;20203;-60
2023/02/02 01:31:32;;;;;;;9.67;2.40;;;8.70;99.90;;;;;;5036529;28;20797;-60
2023/02/02 01:33:59;;;;;;;11.47;2.47;;;8.70;99.90;;;;;;5038046;28;20705;-61
2023/02/02 01:36:26;;;;;;;15.40;2.77;;;8.70;99.90;;;;;;5038977;28;20317;-60
2023/02/02 01:38:53;;;;;;;11.03;2.57;;;8.60;99.90;;;;;;5035096;28;20230;-61
2023/02/02 01:41:23;;;;;;;8.43;2.30;;;8.60;99.90;;;;;;5040464;28;20504;-60
2023/02/02 01:44:02;;;;;;;13.93;2.40;;;8.70;99.90;;;;;;5040499;28;20573;-60
2023/02/02 01:46:34;;;;;;;13.00;2.50;;;8.60;99.90;;;;;;5037813;28;20204;-62
2023/02/02 01:49:01;;;;;;;9.97;2.43;;;8.60;99.90;;;;;;5035319;28;20204;-61
2023/02/02 01:51:41;;;;;;;9.43;2.23;;;8.60;99.90;;;;;;5037396;28;20268;-59
2023/02/02 01:54:12;;;;;;;12.60;2.70;;;8.60;99.90;;;;;;5035855;28;20202;-60
2023/02/02 01:56:59;;;;;;;11.33;2.83;;;8.60;99.90;;;;;;5039629;28;20571;-60
2023/02/02 01:59:29;;;;;;;11.60;2.53;;;8.60;99.90;;;;;;5053187;28;20647;-60
2023/02/02 02:01:56;;;;;;;8.47;2.40;;;8.60;99.90;;;;;;5037887;28;20203;-59
2023/02/02 02:04:25;;;;;;;14.83;2.70;;;8.50;99.90;;;;;;5037223;28;20230;-61
2023/02/02 02:06:52;;;;;;;14.53;2.73;;;8.50;99.90;;;;;;5039361;28;20219;-60
2023/02/02 02:09:20;;;;;;;12.67;2.90;;;8.60;99.90;;;;;;5036238;28;20211;-59
2023/02/02 02:11:47;;;;;;;8.47;1.97;;;8.60;99.90;;;;;;5036420;28;20232;-62
2023/02/02 02:17:00;;;;;;;8.40;2.13;;;8.60;99.90;;;;;;5036766;28;20211;-62
2023/02/02 02:29:11;;;;;;;11.93;2.43;;;8.50;99.90;;;;;;5037784;28;20702;-62
2023/02/02 02:32:03;;;;;;;13.47;2.20;;;8.50;99.90;;;;;;5021802;28;20294;-62
2023/02/02 02:35:02;;;;;;;16.80;2.37;;;8.50;99.90;;;;;;5039148;28;20287;-62
2023/02/02 02:37:38;;;;;;;15.13;2.57;;;8.50;99.90;;;;;;5036691;28;20259;-63
2023/02/02 02:40:24;;;;;;;14.10;2.90;;;8.50;99.90;;;;;;5020617;28;20294;-62
2023/02/02 02:43:09;;;;;;;8.70;2.30;;;8.40;99.90;;;;;;5039685;28;20265;-64
2023/02/02 02:45:37;;;;;;;16.07;2.57;;;8.40;99.90;;;;;;5035297;28;20661;-63
2023/02/02 02:48:04;;;;;;;10.47;2.23;;;8.40;99.90;;;;;;5037566;28;20559;-63
2023/02/02 02:50:31;;;;;;;9.80;2.20;;;8.50;99.90;;;;;;5038256;28;20202;-62
2023/02/02 02:53:22;;;;;;;16.83;2.73;;;8.60;99.90;;;;;;5036977;28;20292;-65
2023/02/02 02:56:05;;;;;;;13.60;2.10;;;8.50;99.90;;;;;;5040101;28;20247;-62
2023/02/02 02:58:57;;;;;;;14.67;2.80;;;8.50;99.90;;;;;;5031243;28;20613;-64
2023/02/02 03:01:59;;;;;;;5.90;1.80;;;8.50;99.90;;;;;;5026951;28;20207;-62
2023/02/02 03:04:48;;;;;;;8.97;1.90;;;8.50;99.90;;;;;;5027187;28;20320;-62
2023/02/02 03:07:41;;;;;;;15.20;2.90;;;8.40;99.90;;;;;;5020977;28;20350;-63
2023/02/02 03:10:12;;;;;;;14.67;2.90;;;8.50;99.90;;;;;;5026350;28;20301;-64
2023/02/02 03:12:50;;;;;;;10.83;2.53;;;8.50;99.90;;;;;;5028700;28;20199;-61
2023/02/02 03:15:17;;;;;;;14.53;2.27;;;8.50;99.90;;;;;;5031153;28;20563;-60
2023/02/02 03:17:49;;;;;;;11.03;2.60;;;8.50;99.90;;;;;;5023491;28;20209;-60
2023/02/02 03:20:16;;;;;;;9.00;2.33;;;8.50;99.90;;;;;;5032954;28;20676;-60
2023/02/02 03:22:43;;;;;;;11.33;2.60;;;8.60;99.90;;;;;;5027097;28;20218;-60
2023/02/02 03:25:10;;;;;;;8.17;2.20;;;8.50;99.90;;;;;;5027532;28;20292;-60
2023/02/02 03:27:38;;;;;;;13.40;2.70;;;8.50;99.90;;;;;;5028164;28;20325;-60
2023/02/02 03:30:08;;;;;;;9.73;2.30;;;8.50;99.90;;;;;;5028159;28;20278;-60
2023/02/02 03:32:35;;;;;;;11.77;2.83;;;8.50;99.90;;;;;;5029960;28;20217;-61
2023/02/02 03:35:03;;;;;;;9.13;2.13;;;8.50;99.90;;;;;;5026399;28;20676;-62
2023/02/02 03:37:29;;;;;;;10.30;2.13;;;8.50;99.90;;;;;;5028173;28;20751;-64
2023/02/02 03:39:56;;;;;;;10.03;2.20;;;8.50;99.90;;;;;;5027902;28;20203;-62
2023/02/02 03:42:23;;;;;;;9.13;2.20;;;8.50;99.90;;;;;;5027340;28;20213;-63
2023/02/02 03:44:49;;;;;;;13.03;2.23;;;8.60;99.90;;;;;;5027919;28;20289;-65
2023/02/02 03:47:16;;;;;;;8.27;2.20;;;8.50;99.90;;;;;;5028349;28;20343;-62
2023/02/02 03:49:43;;;;;;;14.00;2.43;;;8.60;99.90;;;;;;5025267;28;20206;-63
2023/02/02 03:52:10;;;;;;;9.63;2.77;;;8.50;99.90;;;;;;5025759;28;20663;-61
2023/02/02 03:54:36;;;;;;;14.13;2.27;;;8.50;99.90;;;;;;5029609;28;20738;-60
2023/02/02 03:57:03;;;;;;;12.07;2.40;;;8.50;99.90;;;;;;5037792;28;20205;-61
2023/02/02 03:59:30;;;;;;;17.63;2.90;;;8.60;99.90;;;;;;5044097;28;20289;-60
2023/02/02 04:01:57;;;;;;;10.13;2.27;;;8.60;99.90;;;;;;5032220;28;20204;-58
2023/02/02 04:04:23;;;;;;;8.07;2.40;;;8.60;99.90;;;;;;5035902;28;20266;-60
2023/02/02 04:06:50;;;;;;;16.97;2.37;;;8.60;99.90;;;;;;5033348;28;20999;-59
2023/02/02 04:09:17;;;;;;;11.63;2.27;;;8.60;99.90;;;;;;5031084;28;20545;-63
2023/02/02 04:11:44;;;;;;;17.03;2.30;;;8.60;99.90;;;;;;5036727;28;20188;-60
2023/02/02 04:14:10;;;;;;;12.03;2.53;;;8.60;99.90;;;;;;5027748;28;20856;-59
2023/02/02 04:16:37;;;;;;;17.07;2.63;;;8.60;99.90;;;;;;5035367;28;20225;-61
2023/02/02 04:19:04;;;;;;;10.10;1.87;;;8.70;99.90;;;;;;5031356;28;20308;-59
2023/02/02 04:21:31;;;;;;;12.87;2.47;;;8.60;99.90;;;;;;5034904;28;20204;-59
2023/02/02 04:23:59;;;;;;;14.57;2.13;;;8.70;99.90;;;;;;5035381;28;20211;-59
2023/02/02 04:26:26;;;;;;;9.77;2.57;;;8.60;99.90;;;;;;5021615;28;20295;-59
2023/02/02 04:28:53;;;;;;;9.97;2.37;;;8.60;99.90;;;;;;5035583;28;20211;-59
2023/02/02 04:31:20;;;;;;;11.90;1.97;;;8.60;99.90;;;;;;5032601;28;20220;-60
2023/02/02 04:33:46;;;;;;;11.13;2.20;;;8.70;99.90;;;;;;5036059;28;20921;-61
2023/02/02 04:36:13;;;;;;;9.80;2.30;;;8.60;99.90;;;;;;5023947;28;20224;-59
2023/02/02 04:38:40;;;;;;;13.17;2.00;;;8.60;99.90;;;;;;5029245;28;20218;-59
2023/02/02 04:41:09;;;;;;;9.77;2.20;;;8.60;99.90;;;;;;5035825;28;20298;-59
2023/02/02 04:43:37;;;;;;;7.30;2.00;;;8.60;99.90;;;;;;5030662;28;20655;-65
2023/02/02 04:46:04;;;;;;;7.83;2.00;;;8.60;99.90;;;;;;5033912;28;20213;-58
2023/02/02 04:48:31;;;;;;;11.57;2.43;;;8.60;99.90;;;;;;5034091;28;20233;-61
2023/02/02 04:51:06;;;;;;;8.73;2.30;;;8.60;99.90;;;;;;5029595;28;20198;-62
2023/02/02 04:53:33;;;;;;;9.63;2.30;;;8.60;99.90;;;;;;5033934;28;20198;-62
2023/02/02 04:56:08;;;;;;;11.87;1.60;;;8.60;99.90;;;;;;5033023;28;20202;-62
2023/02/02 04:58:35;;;;;;;8.97;1.80;;;8.60;99.90;;;;;;5031729;28;20291;-62
2023/02/02 05:01:11;;;;;;;10.60;1.90;;;8.60;99.90;;;;;;5034927;28;20218;-63
2023/02/02 05:03:38;;;;;;;8.90;2.00;;;8.50;99.90;;;;;;5035196;28;20246;-62
2023/02/02 05:06:05;;;;;;;10.90;2.53;;;8.50;99.90;;;;;;5031584;28;20713;-63
2023/02/02 05:08:32;;;;;;;12.27;2.33;;;8.60;99.90;;;;;;5028098;28;20224;-61
2023/02/02 05:10:59;;;;;;;12.23;1.90;;;8.60;99.90;;;;;;5032229;28;20292;-60
2023/02/02 05:13:26;;;;;;;8.97;1.87;;;8.60;99.90;;;;;;5035702;28;20216;-61
2023/02/02 05:15:53;;;;;;;11.20;2.37;;;8.50;99.90;;;;;;5038095;28;20771;-60
2023/02/02 05:18:21;;;;;;;8.07;2.10;;;8.50;99.90;;;;;;5037903;28;20223;-61
2023/02/02 05:20:47;;;;;;;10.03;2.00;;;8.60;99.90;;;;;;5038274;28;20201;-61
2023/02/02 05:23:14;;;;;;;14.67;2.70;;;8.60;99.90;;;;;;5037357;28;20203;-61
2023/02/02 05:25:41;;;;;;;6.97;1.80;;;8.60;99.90;;;;;;5034563;28;20195;-61
2023/02/02 05:28:07;;;;;;;11.17;2.13;;;8.60;99.90;;;;;;5038862;28;20258;-63
2023/02/02 05:30:37;;;;;;;9.30;2.23;;;8.60;99.90;;;;;;5036491;28;20227;-61
2023/02/02 05:33:04;;;;;;;10.50;1.73;;;8.60;99.90;;;;;;5039968;28;20201;-60
2023/02/02 05:35:30;;;;;;;10.97;2.30;;;8.60;99.90;;;;;;5037444;28;20706;-61
2023/02/02 05:37:57;;;;;;;7.23;2.17;;;8.60;99.90;;;;;;5031455;28;20200;-60
2023/02/02 05:40:24;;;;;;;12.37;2.37;;;8.60;99.90;;;;;;5026688;28;20291;-60
2023/02/02 05:42:51;;;;;;;12.83;2.57;;;8.60;99.90;;;;;;5033751;28;20215;-61
2023/02/02 05:45:18;;;;;;;12.57;2.53;;;8.70;99.90;;;;;;5036357;28;20298;-60
2023/02/02 05:47:45;;;;;;;8.53;2.00;;;8.70;99.90;;;;;;5037192;28;20226;-66
2023/02/02 05:50:12;;;;;;;14.80;2.63;;;8.60;99.90;;;;;;5039910;28;20295;-61
2023/02/02 05:52:40;;;;;;;17.97;2.50;;;8.60;99.90;;;;;;5034944;28;20198;-61
2023/02/02 05:55:07;;;;;;;8.33;1.80;;;8.60;99.90;;;;;;5039997;28;20669;-60
2023/02/02 05:57:33;;;;;;;10.50;2.20;;;8.70;99.90;;;;;;5038079;28;20674;-60
2023/02/02 06:00:00;;;;;;;11.77;2.50;;;8.70;99.90;;;;;;5035266;28;20740;-60
2023/02/02 06:02:27;;;;;;;6.63;2.23;;;8.60;99.90;;;;;;5039187;28;20281;-61
2023/02/02 06:04:54;;;;;;;8.83;1.90;;;8.60;99.90;;;;;;5035585;28;20661;-61
2023/02/02 06:07:21;;;;;;;7.87;2.40;;;8.60;99.90;;;;;;5029093;28;20196;-65
2023/02/02 06:09:48;;;;;;;11.60;2.57;;;8.60;99.90;;;;;;5026580;28;20208;-61
2023/02/02 06:12:14;;;;;;;9.20;2.07;;;8.60;99.90;;;;;;5032280;28;20205;-62
2023/02/02 06:14:41;;;;;;;5.13;1.73;;;8.50;99.90;;;;;;5031717;28;20200;-61
2023/02/02 06:17:08;;;;;;;11.83;2.37;;;8.60;99.90;;;;;;5037337;28;20208;-61
2023/02/02 06:19:34;;;;;;;15.73;2.27;;;8.60;99.90;;;;;;5034470;28;20214;-61
2023/02/02 06:22:01;;;;;;;11.93;2.70;;;8.60;99.90;;;;;;5035602;28;20229;-61
2023/02/02 06:24:28;;;;;;;11.33;2.13;;;8.60;99.90;;;;;;5035878;28;20635;-61
2023/02/02 06:26:55;;;;;;;11.20;2.27;;;8.60;99.90;;;;;;5038675;28;20309;-61
2023/02/02 06:29:25;;;;;;;14.00;2.30;;;8.50;99.90;;;;;;5036583;28;20225;-60
2023/02/02 06:31:52;;;;;;;12.33;2.30;;;8.50;99.90;;;;;;5037818;28;20645;-61
2023/02/02 06:34:19;;;;;;;8.80;2.07;;;8.50;99.90;;;;;;5036108;28;20220;-61
2023/02/02 06:36:46;;;;;;;7.27;1.90;;;8.50;99.90;;;;;;5038517;28;20301;-60
2023/02/02 06:39:12;;;;;;;11.47;2.50;;;8.50;99.90;;;;;;5036358;28;20218;-60
2023/02/02 06:41:39;;;;;;;8.23;2.27;;;8.50;99.90;;;;;;5037521;28;20326;-60
2023/02/02 06:44:06;;;;;;;12.67;2.67;;;8.50;99.90;;;;;;5037092;28;20796;-60
2023/02/02 06:46:33;;;;;;;10.20;1.87;;;8.60;99.90;;;;;;5037400;28;20327;-60
2023/02/02 06:49:00;;;;;;;10.60;2.50;;;8.50;99.90;;;;;;5036502;28;20223;-60
2023/02/02 06:51:26;;;;;;;21.03;3.17;;;8.60;99.90;;;;;;5040265;28;20411;-60
2023/02/02 06:53:53;;;;;;;9.17;2.37;;;8.50;99.90;;;;;;5036859;28;20561;-60
2023/02/02 06:56:21;;;;;;;3.90;1.80;;;8.60;99.90;;;;;;5039319;28;20208;-60
2023/02/02 06:58:48;;;;;;;8.87;1.67;;;8.60;99.90;;;;;;5034647;28;20300;-62
2023/02/02 07:01:15;;;;;;;8.30;1.90;;;8.50;99.90;;;;;;5027203;28;20663;-64
2023/02/02 07:03:42;;;;;;;8.50;2.37;;;8.60;99.90;;;;;;5037086;28;20665;-63
2023/02/02 07:06:11;;;;;;;9.37;2.20;;;8.60;99.90;;;;;;5032066;28;20235;-64
2023/02/02 07:08:38;;;;;;;8.13;2.07;;;8.60;99.90;;;;;;5025312;28;20763;-64
2023/02/02 07:11:04;;;;;;;8.70;2.40;;;8.50;99.90;;;;;;5030483;28;20626;-63
2023/02/02 07:13:46;;;;;;;9.37;2.10;;;8.50;99.90;;;;;;5029387;28;20209;-62
2023/02/02 07:16:15;;;;;;;13.83;2.47;;;8.50;99.90;;;;;;5027410;28;20206;-62
2023/02/02 07:18:42;;;;;;;7.47;1.90;;;8.50;99.90;;;;;;5026722;28;20227;-62
2023/02/02 07:21:22;;;;;;;9.50;2.13;;;8.50;99.90;;;;;;5027501;28;20203;-62
2023/02/02 07:23:49;;;;;;;8.60;2.43;;;8.40;99.90;;;;;;5018635;28;20204;-63
2023/02/02 07:26:18;;;;;;;11.93;2.60;;;8.50;99.90;;;;;;5026388;28;20614;-63
2023/02/02 07:28:46;;;;;;;8.60;2.20;;;8.40;99.90;;;;;;5022518;28;20646;-63
2023/02/02 07:31:15;;;;;;;9.93;2.20;;;8.50;99.90;;;;;;5028843;28;20658;-65
2023/02/02 07:33:44;;;;;;;5.50;1.67;;;8.60;99.90;;;;;;5028234;28;20200;-65
2023/02/02 07:36:15;;;;;;;14.77;3.67;;;8.50;99.90;;;;;;5025789;28;20274;-64
2023/02/02 07:38:43;;;;;;;8.17;3.17;;;8.40;99.90;;;;;;5029920;28;20295;-64
2023/02/02 07:41:10;;;;;;;13.00;2.80;;;8.50;99.90;;;;;;5012240;28;20333;-63
2023/02/02 07:43:37;;;;;;;11.43;2.20;;;8.50;99.90;;;;;;5026894;28;20220;-63
2023/02/02 07:46:08;;;;;;;8.57;2.07;;;8.30;99.90;;;;;;5024114;28;20429;-63
2023/02/02 07:48:36;;;;;;;9.77;2.23;;;8.40;99.90;;;;;;4656667;28;10000532;-63
2023/02/02 07:51:06;;;;;;;8.60;2.20;;;8.40;99.90;;;;;;5007293;28;20568;-63
2023/02/02 07:53:34;;;;;;;9.07;2.87;;;8.40;99.90;;;;;;5012004;28;20215;-63
2023/02/02 07:56:15;;;;;;;7.83;2.23;;;8.40;99.90;;;;;;5011686;28;20281;-64
2023/02/02 07:58:42;;;;;;;7.93;1.80;;;8.30;99.90;;;;;;5017403;28;20680;-64
2023/02/02 08:01:11;;;;;;;10.73;2.60;;;8.40;99.90;;;;;;5019826;28;20552;-64
2023/02/02 08:03:39;;;;;;;9.80;2.40;;;8.40;99.90;;;;;;5020196;28;20289;-64
2023/02/02 08:06:13;;;;;;;12.27;2.40;;;8.50;99.90;;;;;;5021189;28;20213;-65
2023/02/02 08:08:40;;;;;;;9.37;1.80;;;8.50;99.90;;;;;;5021857;28;20370;-66
2023/02/02 08:11:09;;;;;;;7.23;2.00;;;8.40;99.90;;;;;;5019108;28;20207;-63
2023/02/02 08:13:36;;;;;;;7.03;2.10;;;8.40;99.90;;;;;;5010019;28;20710;-63
2023/02/02 08:16:03;;;;;;;5.97;1.90;;;8.50;99.90;;;;;;5019905;28;20219;-63
2023/02/02 08:18:30;;;;;;;15.23;2.40;;;8.50;99.90;;;;;;5013935;28;20344;-63
2023/02/02 08:20:58;;;;;;;9.50;2.50;;;8.50;99.90;;;;;;5022565;28;20205;-63
2023/02/02 08:23:26;;;;;;;6.97;2.40;;;8.50;99.90;;;;;;5019713;28;20207;-64
2023/02/02 08:26:03;;;;;;;10.80;2.77;;;8.60;99.90;;;;;;5013737;28;20201;-64
2023/02/02 08:28:30;;;;;;;7.00;1.77;;;8.60;99.90;;;;;;5020496;28;20230;-63
2023/02/02 08:31:03;;;;;;;10.50;2.10;;;8.60;99.90;;;;;;5020061;28;20205;-64
2023/02/02 08:33:30;;;;;;;11.20;2.20;;;8.70;99.90;;;;;;5017091;28;20207;-63
2023/02/02 08:35:57;;;;;;;9.00;2.23;;;8.70;99.90;;;;;;5016736;28;20223;-64
2023/02/02 08:38:24;;;;;;;8.87;2.10;;;8.60;99.90;;;;;;5018439;28;20201;-67
2023/02/02 08:40:51;;;;;;;9.27;1.87;;;8.70;99.90;;;;;;5023362;28;20289;-65
2023/02/02 08:43:18;;;;;;;6.57;2.30;;;8.70;99.90;;;;;;5028635;28;20826;-68
2023/02/02 08:45:45;;;;;;;7.07;2.03;;;8.60;99.90;;;;;;5029465;28;20253;-66
2023/02/02 08:48:30;;;;;;;9.40;1.97;;;8.70;99.90;;;;;;5027147;28;20213;-67
2023/02/02 08:50:58;;;;;;;10.00;1.83;;;8.70;99.90;;;;;;5024719;28;20291;-67
2023/02/02 08:53:26;;;;;;;15.13;2.10;;;8.70;99.90;;;;;;5025087;28;20215;-68
2023/02/02 08:56:05;;;;;;;10.17;1.80;;;8.70;99.90;;;;;;5025142;28;20536;-66
2023/02/02 08:58:33;;;;;;;11.50;2.23;;;8.70;99.90;;;;;;5025527;28;20204;-66
2023/02/02 09:01:04;;;;;;;13.17;1.47;;;8.80;99.90;;;;;;5025375;28;20208;-67
2023/02/02 09:03:31;;;;;;;9.00;1.93;;;8.80;99.90;;;;;;5019334;28;20198;-66
2023/02/02 09:06:07;;;;;;;5.80;1.67;;;8.80;99.90;;;;;;5024027;28;20865;-67
2023/02/02 09:08:34;;;;;;;8.50;1.90;;;8.80;99.90;;;;;;5017858;28;20196;-67
2023/02/02 09:11:05;;;;;;;5.80;1.73;;;8.80;99.90;;;;;;5015610;28;21170;-66
2023/02/02 09:13:33;;;;;;;7.00;2.03;;;8.80;99.90;;;;;;5026358;28;20694;-67
2023/02/02 09:16:02;;;;;;;7.37;3.77;;;8.70;99.90;;;;;;5020838;28;20556;-67
2023/02/02 09:18:29;;;;;;;10.80;2.23;;;8.80;99.90;;;;;;5037481;28;20199;-65
2023/02/02 09:21:02;;;;;;;10.87;2.33;;;8.80;99.90;;;;;;5022966;28;20276;-63
2023/02/02 09:23:30;;;;;;;14.23;2.70;;;8.80;99.90;;;;;;5025271;28;20711;-63
2023/02/02 09:26:07;;;;;;;4.53;1.43;;;8.90;99.90;;;;;;5025654;28;20291;-62
2023/02/02 09:28:33;;;;;;;8.60;1.87;;;9.00;99.90;;;;;;5024261;28;20297;-67
2023/02/02 09:31:01;;;;;;;12.50;2.60;;;9.10;99.90;;;;;;5019004;28;20207;-65
2023/02/02 09:33:28;;;;;;;10.23;1.63;;;9.10;99.90;;;;;;5024815;28;20826;-65
2023/02/02 09:35:55;;;;;;;8.77;2.00;;;9.20;99.90;;;;;;5020669;28;20229;-65
2023/02/02 09:38:21;;;;;;;7.13;2.10;;;9.20;99.90;;;;;;5021630;28;20295;-65
2023/02/02 09:40:48;;;;;;;9.40;2.57;;;9.30;99.90;;;;;;5024622;28;20303;-65
2023/02/02 09:43:21;;;;;;;10.83;2.20;;;9.20;99.90;;;;;;5028243;28;20754;-63
2023/02/02 09:45:58;;;;;;;9.07;2.40;;;9.30;99.90;;;;;;5023264;28;20354;-64
2023/02/02 09:48:37;;;;;;;8.80;2.00;;;9.20;99.90;;;;;;5020700;28;20205;-64
2023/02/02 09:51:14;;;;;;;8.27;2.23;;;9.20;99.90;;;;;;5013819;28;20604;-63
2023/02/02 09:53:55;;;;;;;9.10;2.10;;;9.30;99.90;;;;;;5024312;28;20213;-63
2023/02/02 09:56:53;;;;;;;10.73;2.00;;;9.30;99.90;;;;;;5024202;28;20818;-64
2023/02/02 09:59:24;;;;;;;6.57;1.97;;;9.20;99.90;;;;;;5021970;28;20219;-62
2023/02/02 10:02:00;;;;;;;10.53;1.97;;;9.10;99.90;;;;;;5012839;28;20256;-63
2023/02/02 10:04:39;;;;;;;9.33;1.87;;;9.10;99.90;;;;;;5019568;28;20235;-63
2023/02/02 10:07:12;;;;;;;12.37;2.03;;;9.20;99.90;;;;;;5020978;28;20210;-63
2023/02/02 10:09:57;;;;;;;7.67;1.90;;;9.20;99.90;;;;;;5023070;28;20221;-64
2023/02/02 10:12:45;;;;;;;11.07;2.57;;;9.20;99.90;;;;;;5019996;28;20200;-63
2023/02/02 10:15:21;;;;;;;10.47;2.07;;;9.30;99.90;;;;;;5020287;28;20231;-63
2023/02/02 10:18:03;;;;;;;8.60;1.83;;;9.30;99.90;;;;;;5020821;28;20200;-63
2023/02/02 10:20:50;;;;;;;6.13;1.43;;;9.30;99.90;;;;;;5021420;28;20220;-63
2023/02/02 10:23:36;;;;;;;11.37;2.10;;;9.30;99.90;;;;;;5021504;28;20349;-64
2023/02/02 10:26:25;;;;;;;5.33;1.50;;;9.40;99.90;;;;;;5023930;28;20295;-64
2023/02/02 10:29:16;;;;;;;10.73;2.13;;;9.40;99.90;;;;;;5021810;28;20301;-63
2023/02/02 10:31:58;;;;;;;15.43;2.80;;;9.40;99.90;;;;;;5021105;28;20233;-63
2023/02/02 10:34:50;;;;;;;13.20;1.97;;;9.40;99.90;;;;;;5020837;28;20546;-63
2023/02/02 10:37:57;;;;;;;8.93;1.87;;;9.50;99.90;;;;;;5032095;28;20309;-64
2023/02/02 10:40:48;;;;;;;9.33;2.07;;;9.50;99.90;;;;;;5025589;28;20239;-63
2023/02/02 10:43:45;;;;;;;9.10;1.43;;;9.50;99.90;;;;;;5018608;28;20200;-62
2023/02/02 10:46:23;;;;;;;5.50;1.83;;;9.50;1.00;;;;;;5022754;28;20321;-63
2023/02/02 10:49:13;;;;;;;13.37;1.97;;;9.60;1.00;;;;;;5020351;28;20476;-62
2023/02/02 10:51:40;;;;;;;7.23;1.87;;;9.50;99.90;;;;;;5013089;28;20309;-63
2023/02/02 10:54:31;;;;;;;11.40;2.17;;;9.60;1.00;;;;;;5022611;28;20254;-63
2023/02/02 10:57:09;;;;;;;8.20;2.00;;;9.50;1.00;;;;;;5021664;28;20376;-63
2023/02/02 10:59:52;;;;;;;11.67;2.13;;;9.40;1.00;;;;;;5022358;28;20217;-63
2023/02/02 11:02:19;;;;;;;7.50;2.17;;;9.50;45.90;;;;;;5021617;28;20214;-64
2023/02/02 11:07:32;;;;;;;17.67;2.40;;;9.50;99.90;;;;;;5030325;28;20214;-63
2023/02/02 11:09:59;;;;;;;7.50;2.13;;;9.50;99.90;;;;;;5030808;28;20857;-64
2023/02/02 11:12:35;;;;;;;8.20;2.03;;;9.50;99.90;;;;;;5029033;28;20207;-64
2023/02/02 11:15:21;;;;;;;9.73;2.90;;;9.50;99.90;;;;;;5018160;28;20214;-64
2023/02/02 11:17:48;;;;;;;10.00;2.23;;;9.40;99.90;;;;;;5025782;28;20207;-64
2023/02/02 11:20:24;;;;;;;9.33;1.97;;;9.50;99.90;;;;;;5023119;28;20245;-64
2023/02/02 11:23:03;;;;;;;10.17;2.00;;;9.60;99.90;;;;;;5026060;28;20234;-64
2023/02/02 11:25:36;;;;;;;11.40;1.50;;;9.50;99.90;;;;;;5029281;28;20745;-63
2023/02/02 11:28:23;;;;;;;16.17;4.50;;;9.50;99.90;;;;;;5026845;28;20330;-64
2023/02/02 11:30:51;;;;;;;10.27;1.97;;;9.60;99.90;;;;;;5023922;28;20222;-64
2023/02/02 11:33:25;;;;;;;11.00;1.97;;;9.60;99.90;;;;;;5027793;28;20224;-64
2023/02/02 11:35:57;;;;;;;9.27;2.20;;;9.70;99.90;;;;;;5030807;28;20332;-62
2023/02/02 11:38:26;;;;;;;9.93;2.20;;;9.60;99.90;;;;;;5023500;28;20219;-60
2023/02/02 11:41:04;;;;;;;7.70;1.93;;;9.60;99.90;;;;;;5027154;28;20246;-61
2023/02/02 11:43:46;;;;;;;6.90;1.67;;;9.70;99.90;;;;;;5026825;28;20301;-62
2023/02/02 11:46:23;;;;;;;9.70;1.60;;;9.60;99.90;;;;;;5021894;28;20295;-64
2023/02/02 11:49:07;;;;;;;4.97;1.50;;;9.60;99.90;;;;;;5030411;28;20239;-65
2023/02/02 11:51:34;;;;;;;9.17;1.90;;;9.60;99.90;;;;;;5027398;28;20201;-64
2023/02/02 11:54:05;;;;;;;5.30;1.90;;;9.60;99.90;;;;;;5032554;28;20201;-64
2023/02/02 11:56:35;;;;;;;7.60;1.77;;;9.60;99.90;;;;;;5030147;28;20750;-65
2023/02/02 11:59:02;;;;;;;9.90;1.77;;;9.60;99.90;;;;;;5031221;28;20200;-64
2023/02/02 12:01:34;;;;;;;5.73;1.47;;;9.50;99.90;;;;;;5032546;28;20337;-64
2023/02/02 12:04:20;;;;;;;7.40;1.67;;;9.50;99.90;;;;;;5030171;28;20734;-64
2023/02/02 12:06:47;;;;;;;6.47;1.70;;;9.60;99.90;;;;;;5030611;28;20296;-64
2023/02/02 12:09:18;;;;;;;7.13;1.43;;;9.60;99.90;;;;;;5035146;28;20562;-64
2023/02/02 12:12:17;;;;;;;8.83;1.73;;;9.40;99.90;;;;;;5032083;28;20207;-64
2023/02/02 12:15:43;;;;;;;5.23;1.60;;;9.50;99.90;;;;;;5031866;28;20205;-63
2023/02/02 12:18:46;;;;;;;8.23;1.53;;;9.50;99.90;;;;;;4962936;28;20213;-63
2023/02/02 12:21:46;;;;;;;7.50;1.80;;;9.50;99.90;;;;;;4988856;28;20302;-63
2023/02/02 12:24:33;;;;;;;5.47;1.07;;;9.60;99.90;;;;;;4929271;28;20303;-63
2023/02/02 12:27:17;;;;;;;6.57;2.13;;;9.50;99.90;;;;;;4995394;28;20213;-64
2023/02/02 12:30:04;;;;;;;8.23;1.60;;;9.50;99.90;;;;;;4986947;28;20384;-64
2023/02/02 12:32:57;;;;;;;12.00;2.40;;;9.50;99.90;;;;;;4984444;28;20337;-64
2023/02/02 12:35:49;;;;;;;5.33;1.07;;;9.60;99.90;;;;;;4981484;28;20643;-64
2023/02/02 12:38:35;;;;;;;9.10;1.87;;;9.50;99.90;;;;;;4966046;28;20727;-64
2023/02/02 12:41:10;;;;;;;4.07;1.37;;;9.60;85.70;;;;;;4984136;28;20760;-64
2023/02/02 12:43:37;;;;;;;5.77;1.40;;;9.60;99.90;;;;;;4988904;28;20223;-60
2023/02/02 12:46:16;;;;;;;10.30;1.87;;;9.70;99.90;;;;;;4973983;28;20526;-61
2023/02/02 12:48:50;;;;;;;7.83;1.50;;;9.60;99.90;;;;;;5013164;28;20757;-61
2023/02/02 12:51:34;;;;;;;5.03;1.60;;;9.60;99.90;;;;;;5036767;28;20326;-61
2023/02/02 12:54:43;;;;;;;4.83;1.70;;;9.60;99.90;;;;;;5028607;28;20240;-61
2023/02/02 12:57:26;;;;;;;4.33;1.83;;;9.60;99.90;;;;;;5036402;28;20223;-61
2023/02/02 13:00:05;;;;;;;10.70;1.90;;;9.60;99.90;;;;;;5032001;28;20612;-60
2023/02/02 13:02:51;;;;;;;10.67;1.87;;;9.60;99.90;;;;;;5025338;28;20203;-61
2023/02/02 13:05:43;;;;;;;8.30;1.87;;;9.50;99.90;;;;;;5017090;28;20231;-64
2023/02/02 13:08:20;;;;;;;12.87;1.93;;;9.30;99.90;;;;;;5033509;28;20214;-59
2023/02/02 13:10:52;;;;;;;8.20;1.90;;;9.30;99.90;;;;;;5030087;28;20313;-60
2023/02/02 13:13:29;;;;;;;10.23;1.93;;;9.20;99.90;;;;;;5027542;28;20662;-60
2023/02/02 13:16:04;;;;;;;7.30;1.60;;;9.20;99.90;;;;;;5027706;28;20569;-60
2023/02/02 13:18:47;;;;;;;10.03;2.20;;;9.30;99.90;;;;;;5025319;28;20198;-59
2023/02/02 13:21:18;;;;;;;9.63;2.33;;;9.30;99.90;;;;;;5026877;28;20212;-60
2023/02/02 13:23:51;;;;;;;6.20;1.40;;;9.20;99.90;;;;;;5028372;28;21375;-63
2023/02/02 13:26:25;;;;;;;4.97;1.57;;;9.10;99.90;;;;;;5023970;28;20212;-61
2023/02/02 13:29:06;;;;;;;8.30;2.17;;;9.10;99.90;;;;;;5009581;28;20782;-61
2023/02/02 13:31:52;;;;;;;7.90;1.90;;;9.10;99.90;;;;;;5017491;28;20220;-61
2023/02/02 13:34:44;;;;;;;8.33;2.50;;;9.10;99.90;;;;;;5018646;28;20203;-60
2023/02/02 13:37:26;;;;;;;7.30;1.70;;;8.90;99.90;;;;;;5019898;28;20216;-61